Time;durP1;ratioP1;P1;durP2;ratioP2;P2;SDS_P1;SDS_P2;PMS_P1;PMS_P2;Temp;Humidity;BMP_temperature;BMP_pressure;BME280_temperature;BME280_humidity;BME280_pressure;Samples;Min_cycle;Max_cycle;Signal;HPM_P1;HPM_P2
2022/12/02 00:00:14;;;;;;;27.63;13.30;;;;;;;;;;1037515;28;20006;-77
2022/12/02 00:00:47;;;;;;;27.35;12.43;;;;;;;;;;1037728;28;20002;-77
2022/12/02 00:01:57;;;;;;;;;;;;;;;;;;1056871;22;20058;-77
2022/12/02 00:02:32;;;;;;;24.90;10.38;;;;;;;;;;1037428;28;20027;-77
2022/12/02 00:03:03;;;;;;;23.38;10.25;;;;;;;;;;1042975;28;20005;-76
2022/12/02 00:03:35;;;;;;;23.77;11.15;;;;;;;;;;1038197;28;20040;-76
2022/12/02 00:04:15;;;;;;;25.30;11.82;;;;;;;;;;1038443;28;20008;-76
2022/12/02 00:05:20;;;;;;;26.60;12.55;;;;;;;;;;1031191;28;20042;-78
2022/12/02 00:05:54;;;;;;;26.77;12.35;;;;;;;;;;1035480;28;20022;-78
2022/12/02 00:06:31;;;;;;;24.42;10.85;;;;;;;;;;1036373;28;20037;-78
2022/12/02 00:07:04;;;;;;;25.95;13.18;;;;;;;;;;1053216;22;20026;-76
2022/12/02 00:07:35;;;;;;;26.15;11.07;;;;;;;;;;1040663;28;20028;-76
2022/12/02 00:08:18;;;;;;;30.05;13.25;;;;;;;;;;1040460;28;20052;-76
2022/12/02 00:08:49;;;;;;;28.65;12.75;;;;;;;;;;1044171;28;20033;-76
2022/12/02 00:09:33;;;;;;;25.92;12.82;;;;;;;;;;1043013;28;20029;-76
2022/12/02 00:10:22;;;;;;;24.25;11.52;;;;;;;;;;1041647;28;20001;-76
2022/12/02 00:10:54;;;;;;;26.63;12.40;;;;;;;;;;1039074;28;20040;-76
2022/12/02 00:11:26;;;;;;;28.15;12.93;;;;;;;;;;1039660;28;20009;-77
2022/12/02 00:11:58;;;;;;;25.95;12.73;;;;;;;;;;1041836;28;20044;-77
2022/12/02 00:12:30;;;;;;;27.42;13.90;;;;;;;;;;1038556;28;20017;-77
2022/12/02 00:13:07;;;;;;;27.00;14.27;;;;;;;;;;1041978;28;20005;-77
2022/12/02 00:15:02;;;;;;;21.42;11.27;;;;;;;;;;1168106;22;19920;-82
2022/12/02 00:16:11;;;;;;;24.15;10.73;;;;;;;;;;1062031;22;20080;-76
2022/12/02 00:16:42;;;;;;;25.98;11.13;;;;;;;;;;1038312;28;20111;-77
2022/12/02 00:17:12;;;;;;;23.83;12.13;;;;;;;;;;1044671;28;20031;-77
2022/12/02 00:17:43;;;;;;;25.60;10.93;;;;;;;;;;1039414;28;20021;-77
2022/12/02 00:18:15;;;;;;;36.08;11.95;;;;;;;;;;1039168;28;20033;-77
2022/12/02 00:18:46;;;;;;;29.63;12.05;;;;;;;;;;1043153;28;19998;-77
2022/12/02 00:19:17;;;;;;;25.27;11.60;;;;;;;;;;1038427;28;20038;-77
2022/12/02 00:19:47;;;;;;;22.58;11.98;;;;;;;;;;1041897;28;20396;-77
2022/12/02 00:20:18;;;;;;;22.13;10.73;;;;;;;;;;1040612;28;19997;-77
2022/12/02 00:20:49;;;;;;;28.65;11.43;;;;;;;;;;1041308;28;20068;-77
2022/12/02 00:21:21;;;;;;;22.30;12.23;;;;;;;;;;1036262;28;20026;-77
2022/12/02 00:23:09;;;;;;;23.20;11.88;;;;;;;;;;1041569;28;19906;-77
2022/12/02 00:23:40;;;;;;;23.33;11.48;;;;;;;;;;1040625;28;20029;-77
2022/12/02 00:24:11;;;;;;;21.88;11.70;;;;;;;;;;1041046;28;20031;-77
2022/12/02 00:24:42;;;;;;;25.65;11.65;;;;;;;;;;1041074;28;20013;-77
2022/12/02 00:25:13;;;;;;;28.60;11.38;;;;;;;;;;1044080;28;20028;-77
2022/12/02 00:25:49;;;;;;;19.75;10.13;;;;;;;;;;1042886;28;20022;-77
2022/12/02 00:26:19;;;;;;;24.88;10.85;;;;;;;;;;1091762;22;20002;-78
2022/12/02 00:26:50;;;;;;;23.45;8.85;;;;;;;;;;1042005;28;20444;-78
2022/12/02 00:27:21;;;;;;;22.88;9.48;;;;;;;;;;1042118;28;20017;-78
2022/12/02 00:27:51;;;;;;;22.80;9.85;;;;;;;;;;1045816;28;20033;-78
2022/12/02 00:28:22;;;;;;;27.15;10.77;;;;;;;;;;1042055;28;20022;-78
2022/12/02 00:28:53;;;;;;;22.48;8.98;;;;;;;;;;1039527;28;20010;-78
2022/12/02 00:29:24;;;;;;;36.13;10.60;;;;;;;;;;1040540;28;20025;-78
2022/12/02 00:29:54;;;;;;;20.38;10.68;;;;;;;;;;1037707;28;20027;-77
2022/12/02 00:30:25;;;;;;;24.58;10.93;;;;;;;;;;1038904;28;20048;-77
2022/12/02 00:30:56;;;;;;;23.63;10.70;;;;;;;;;;1045862;28;20010;-77
2022/12/02 00:32:00;;;;;;;22.05;9.38;;;;;;;;;;1035074;28;20062;-82
2022/12/02 00:32:30;;;;;;;18.63;10.15;;;;;;;;;;1062260;22;20034;-81
2022/12/02 00:33:01;;;;;;;20.38;11.60;;;;;;;;;;1060365;23;20046;-76
2022/12/02 00:33:32;;;;;;;21.02;9.40;;;;;;;;;;1033830;28;20040;-77
2022/12/02 00:34:03;;;;;;;24.15;10.40;;;;;;;;;;1034763;28;20030;-77
2022/12/02 00:34:33;;;;;;;20.35;10.00;;;;;;;;;;1035109;28;20002;-77
2022/12/02 00:35:04;;;;;;;20.15;10.77;;;;;;;;;;1033767;28;20066;-77
2022/12/02 00:35:36;;;;;;;23.92;10.63;;;;;;;;;;1035728;28;20018;-77
2022/12/02 00:36:06;;;;;;;25.58;10.48;;;;;;;;;;1039048;28;20065;-77
2022/12/02 00:36:37;;;;;;;22.10;12.32;;;;;;;;;;1038709;28;20060;-77
2022/12/02 00:37:08;;;;;;;25.05;12.10;;;;;;;;;;1040896;28;20040;-77
2022/12/02 00:37:38;;;;;;;31.83;15.70;;;;;;;;;;1039165;28;20034;-77
2022/12/02 00:38:09;;;;;;;32.65;15.00;;;;;;;;;;1037660;28;20476;-77
2022/12/02 00:38:41;;;;;;;34.35;15.77;;;;;;;;;;1040113;28;20034;-77
2022/12/02 00:39:11;;;;;;;39.50;18.27;;;;;;;;;;1043458;28;20440;-77
2022/12/02 00:39:42;;;;;;;50.33;20.75;;;;;;;;;;1043910;28;20065;-77
2022/12/02 00:40:13;;;;;;;42.75;18.75;;;;;;;;;;1042695;28;20010;-77
2022/12/02 00:40:43;;;;;;;47.90;20.83;;;;;;;;;;1039659;28;20025;-77
2022/12/02 00:41:14;;;;;;;44.55;22.95;;;;;;;;;;1039505;28;20026;-77
2022/12/02 00:41:44;;;;;;;51.95;22.33;;;;;;;;;;1035719;28;20030;-77
2022/12/02 00:42:15;;;;;;;46.17;21.17;;;;;;;;;;1036085;28;20079;-77
2022/12/02 00:46:57;;;;;;;73.20;27.95;;;;;;;;;;1040871;28;20025;-82
2022/12/02 00:47:27;;;;;;;86.18;29.50;;;;;;;;;;1040433;28;20425;-82
2022/12/02 00:47:58;;;;;;;73.45;28.63;;;;;;;;;;1040605;28;20029;-83
2022/12/02 00:48:29;;;;;;;73.80;28.98;;;;;;;;;;1036379;28;20053;-82
2022/12/02 00:49:01;;;;;;;64.22;26.90;;;;;;;;;;1036695;28;20025;-83
2022/12/02 00:49:31;;;;;;;71.10;27.95;;;;;;;;;;1040580;28;20393;-82
2022/12/02 00:50:02;;;;;;;61.85;26.05;;;;;;;;;;1040569;28;20017;-82
2022/12/02 00:50:33;;;;;;;98.55;30.80;;;;;;;;;;1040470;28;20033;-82
2022/12/02 00:51:03;;;;;;;63.22;28.17;;;;;;;;;;1036413;28;20026;-82
2022/12/02 00:51:35;;;;;;;70.85;28.23;;;;;;;;;;1036473;28;20065;-82
2022/12/02 00:52:05;;;;;;;81.32;30.33;;;;;;;;;;1032573;28;20027;-82
2022/12/02 00:52:36;;;;;;;76.47;29.38;;;;;;;;;;1032514;28;20030;-82
2022/12/02 00:53:06;;;;;;;75.78;29.65;;;;;;;;;;1036532;28;20466;-82
2022/12/02 00:53:37;;;;;;;71.05;29.50;;;;;;;;;;1036595;28;20055;-83
2022/12/02 00:54:07;;;;;;;62.35;29.10;;;;;;;;;;1040519;28;20026;-83
2022/12/02 00:54:38;;;;;;;59.65;28.83;;;;;;;;;;1040793;28;20462;-82
2022/12/02 00:55:08;;;;;;;72.07;29.30;;;;;;;;;;1057029;23;20041;-81
2022/12/02 00:55:39;;;;;;;67.45;28.05;;;;;;;;;;1047100;23;20038;-81
2022/12/02 00:56:09;;;;;;;66.75;29.73;;;;;;;;;;1040553;28;20030;-82
2022/12/02 00:56:41;;;;;;;72.85;29.75;;;;;;;;;;1040921;28;20021;-82
2022/12/02 00:57:11;;;;;;;70.57;29.70;;;;;;;;;;1040352;28;20043;-82
2022/12/02 00:57:42;;;;;;;70.18;31.05;;;;;;;;;;1040597;28;20032;-83
2022/12/02 00:58:13;;;;;;;63.90;28.55;;;;;;;;;;1040471;28;20033;-83
2022/12/02 00:58:43;;;;;;;65.97;28.67;;;;;;;;;;1040765;28;20548;-82
2022/12/02 00:59:14;;;;;;;62.72;27.55;;;;;;;;;;1040522;28;20029;-82
2022/12/02 01:00:15;;;;;;;68.63;30.07;;;;;;;;;;1062051;22;20049;-76
2022/12/02 01:00:45;;;;;;;68.63;29.27;;;;;;;;;;1040857;28;20088;-77
2022/12/02 01:01:50;;;;;;;56.47;26.63;;;;;;;;;;1034660;28;20163;-82
2022/12/02 01:02:21;;;;;;;59.80;28.02;;;;;;;;;;1036512;28;20030;-81
2022/12/02 01:02:51;;;;;;;63.97;27.55;;;;;;;;;;1036318;28;20113;-81
2022/12/02 01:03:22;;;;;;;55.65;27.80;;;;;;;;;;1032333;28;20030;-82
2022/12/02 01:03:52;;;;;;;63.00;28.08;;;;;;;;;;1028294;28;20031;-82
2022/12/02 01:04:23;;;;;;;64.47;28.10;;;;;;;;;;1038142;23;20017;-82
2022/12/02 01:04:53;;;;;;;71.57;29.63;;;;;;;;;;1043771;23;20042;-82
2022/12/02 01:05:24;;;;;;;55.90;27.45;;;;;;;;;;1036406;28;20068;-82
2022/12/02 01:05:54;;;;;;;65.82;29.25;;;;;;;;;;1036375;28;20111;-82
2022/12/02 01:06:25;;;;;;;66.93;27.17;;;;;;;;;;1036357;28;20030;-82
2022/12/02 01:06:56;;;;;;;61.47;28.63;;;;;;;;;;1036557;28;20036;-82
2022/12/02 01:07:26;;;;;;;58.28;31.50;;;;;;;;;;1036567;28;20048;-82
2022/12/02 01:07:57;;;;;;;70.55;30.30;;;;;;;;;;1036531;28;20017;-83
2022/12/02 01:08:27;;;;;;;71.45;29.85;;;;;;;;;;1040707;28;20113;-83
2022/12/02 01:08:58;;;;;;;80.47;30.25;;;;;;;;;;1036545;28;20021;-83
2022/12/02 01:09:28;;;;;;;66.57;32.25;;;;;;;;;;1036750;28;20018;-83
2022/12/02 01:09:59;;;;;;;61.95;28.75;;;;;;;;;;1040556;28;20075;-83
2022/12/02 01:10:30;;;;;;;72.47;29.42;;;;;;;;;;1040386;28;20108;-83
2022/12/02 01:11:00;;;;;;;71.75;31.60;;;;;;;;;;1057286;23;20033;-83
2022/12/02 01:11:31;;;;;;;70.72;28.63;;;;;;;;;;1061463;22;20037;-82
2022/12/02 01:12:01;;;;;;;65.15;27.73;;;;;;;;;;1038445;23;20069;-83
2022/12/02 01:12:32;;;;;;;61.38;28.30;;;;;;;;;;1033330;23;20061;-82
2022/12/02 01:13:33;;;;;;;55.97;28.43;;;;;;;;;;1074264;23;20057;-83
2022/12/02 01:14:43;;;;;;;;;;;;;;;;;;1097246;22;20326;-76
2022/12/02 01:15:14;;;;;;;62.35;28.75;;;;;;;;;;1037334;28;20285;-76
2022/12/02 01:15:44;;;;;;;67.50;29.80;;;;;;;;;;1038084;28;20092;-78
2022/12/02 01:16:15;;;;;;;60.97;29.00;;;;;;;;;;1038556;28;20491;-77
2022/12/02 01:17:19;;;;;;;67.95;30.02;;;;;;;;;;1043811;22;20042;-84
2022/12/02 01:17:50;;;;;;;71.70;29.02;;;;;;;;;;1046595;22;20488;-81
2022/12/02 01:18:21;;;;;;;65.53;27.75;;;;;;;;;;1073343;22;20076;-82
2022/12/02 01:18:51;;;;;;;63.58;28.17;;;;;;;;;;1057606;22;20039;-83
2022/12/02 01:19:22;;;;;;;59.50;27.10;;;;;;;;;;1040392;28;20052;-82
2022/12/02 01:19:52;;;;;;;58.67;24.88;;;;;;;;;;1047962;23;20036;-82
2022/12/02 01:20:23;;;;;;;59.65;23.38;;;;;;;;;;1056293;23;20034;-81
2022/12/02 01:20:54;;;;;;;59.40;25.80;;;;;;;;;;1035630;28;20029;-82
2022/12/02 01:21:24;;;;;;;58.47;24.90;;;;;;;;;;1040554;28;20052;-82
2022/12/02 01:21:55;;;;;;;52.00;25.27;;;;;;;;;;1040396;28;20025;-82
2022/12/02 01:22:25;;;;;;;53.28;25.38;;;;;;;;;;1040463;28;20076;-82
2022/12/02 01:22:56;;;;;;;52.83;23.25;;;;;;;;;;1040560;28;20087;-82
2022/12/02 01:23:27;;;;;;;44.33;21.88;;;;;;;;;;1041073;28;20017;-82
2022/12/02 01:23:57;;;;;;;49.53;23.17;;;;;;;;;;1042345;28;20033;-85
2022/12/02 01:24:28;;;;;;;54.72;24.60;;;;;;;;;;1037366;28;20029;-84
2022/12/02 01:24:59;;;;;;;49.70;21.35;;;;;;;;;;1041942;28;20040;-85
2022/12/02 01:25:29;;;;;;;54.28;21.55;;;;;;;;;;1041260;28;20544;-84
2022/12/02 01:26:00;;;;;;;57.80;22.25;;;;;;;;;;1040440;28;20033;-84
2022/12/02 01:26:30;;;;;;;44.63;19.73;;;;;;;;;;1040586;28;20378;-84
2022/12/02 01:27:01;;;;;;;44.10;19.02;;;;;;;;;;1040623;28;20033;-85
2022/12/02 01:27:32;;;;;;;45.67;17.90;;;;;;;;;;1036590;28;20460;-84
2022/12/02 01:28:02;;;;;;;41.60;21.15;;;;;;;;;;1037272;28;20029;-84
2022/12/02 01:28:36;;;;;;;42.72;20.50;;;;;;;;;;1037805;28;20033;-85
2022/12/02 01:29:26;;;;;;;;;;;;;;;;;;;;;
2022/12/02 01:30:03;;;;;;;41.88;16.27;;;;;;;;;;1090425;22;20048;-78
2022/12/02 01:30:33;;;;;;;40.45;19.60;;;;;;;;;;1036123;28;20457;-78
2022/12/02 01:31:04;;;;;;;48.40;20.92;;;;;;;;;;1037622;28;20041;-80
2022/12/02 01:31:35;;;;;;;48.55;18.83;;;;;;;;;;1040751;28;20037;-78
2022/12/02 01:32:05;;;;;;;32.90;15.73;;;;;;;;;;1040974;28;20026;-78
2022/12/02 01:32:36;;;;;;;40.08;17.65;;;;;;;;;;1039178;28;20026;-78
2022/12/02 01:33:06;;;;;;;39.60;18.73;;;;;;;;;;1035576;28;20018;-79
2022/12/02 01:33:37;;;;;;;33.15;17.02;;;;;;;;;;1036700;28;20105;-78
2022/12/02 01:34:08;;;;;;;39.67;18.15;;;;;;;;;;1036392;28;20311;-78
2022/12/02 01:34:40;;;;;;;45.50;20.67;;;;;;;;;;1038072;28;20052;-77
2022/12/02 01:35:11;;;;;;;35.55;16.10;;;;;;;;;;1037619;28;20030;-77
2022/12/02 01:35:44;;;;;;;37.83;16.38;;;;;;;;;;1038521;28;20026;-77
2022/12/02 01:36:15;;;;;;;43.58;18.30;;;;;;;;;;1034576;28;20025;-76
2022/12/02 01:36:46;;;;;;;46.75;18.17;;;;;;;;;;1034858;28;20485;-76
2022/12/02 01:37:16;;;;;;;42.60;17.75;;;;;;;;;;1035205;28;20480;-76
2022/12/02 01:37:47;;;;;;;35.30;17.67;;;;;;;;;;1038999;28;20123;-76
2022/12/02 01:38:17;;;;;;;33.08;17.23;;;;;;;;;;1039373;28;20021;-76
2022/12/02 01:38:48;;;;;;;48.30;18.67;;;;;;;;;;1034922;28;20080;-75
2022/12/02 01:39:18;;;;;;;43.28;16.30;;;;;;;;;;1033609;28;20382;-76
2022/12/02 01:39:49;;;;;;;41.95;16.67;;;;;;;;;;1029885;28;20114;-75
2022/12/02 01:40:20;;;;;;;42.33;19.25;;;;;;;;;;1028885;28;20037;-76
2022/12/02 01:40:51;;;;;;;38.88;18.60;;;;;;;;;;1027494;28;20110;-79
2022/12/02 01:41:29;;;;;;;36.28;17.88;;;;;;;;;;1026495;28;20066;-76
2022/12/02 01:42:00;;;;;;;40.53;15.55;;;;;;;;;;1029437;28;20041;-75
2022/12/02 01:42:30;;;;;;;39.10;15.95;;;;;;;;;;1031091;28;20576;-76
2022/12/02 01:43:04;;;;;;;42.17;17.10;;;;;;;;;;1033151;28;20483;-75
2022/12/02 01:43:35;;;;;;;41.97;18.35;;;;;;;;;;1036816;28;20398;-77
2022/12/02 01:44:08;;;;;;;46.65;20.58;;;;;;;;;;1035310;28;20025;-76
2022/12/02 01:44:38;;;;;;;41.30;22.20;;;;;;;;;;1036681;28;20037;-75
2022/12/02 01:45:09;;;;;;;45.00;21.10;;;;;;;;;;1036536;28;20121;-75
2022/12/02 01:45:40;;;;;;;49.17;20.20;;;;;;;;;;1037576;28;21148;-75
2022/12/02 01:46:11;;;;;;;41.63;19.27;;;;;;;;;;1036584;28;20029;-75
2022/12/02 01:46:42;;;;;;;50.30;19.52;;;;;;;;;;1037606;28;20053;-75
2022/12/02 01:47:13;;;;;;;68.47;28.00;;;;;;;;;;1038853;28;20503;-75
2022/12/02 01:47:43;;;;;;;57.83;25.17;;;;;;;;;;1038326;28;20025;-76
2022/12/02 01:48:14;;;;;;;61.92;29.73;;;;;;;;;;1034451;28;20030;-76
2022/12/02 01:48:45;;;;;;;53.95;25.25;;;;;;;;;;1035563;28;20034;-77
2022/12/02 01:49:15;;;;;;;63.63;31.05;;;;;;;;;;1037558;28;20017;-77
2022/12/02 01:49:46;;;;;;;70.40;30.27;;;;;;;;;;1035444;28;20456;-76
2022/12/02 01:50:18;;;;;;;72.47;31.27;;;;;;;;;;1038364;28;20022;-76
2022/12/02 01:50:48;;;;;;;78.80;35.00;;;;;;;;;;1036082;28;20018;-76
2022/12/02 01:51:22;;;;;;;89.93;37.45;;;;;;;;;;1038386;28;20013;-77
2022/12/02 01:51:53;;;;;;;88.70;38.50;;;;;;;;;;1035689;28;20018;-77
2022/12/02 01:52:24;;;;;;;82.10;35.65;;;;;;;;;;1036980;28;20244;-77
2022/12/02 01:52:55;;;;;;;80.85;35.30;;;;;;;;;;1037565;28;20033;-77
2022/12/02 01:53:26;;;;;;;97.18;45.25;;;;;;;;;;1036242;28;20021;-77
2022/12/02 01:53:56;;;;;;;103.25;44.83;;;;;;;;;;1036751;28;20063;-77
2022/12/02 01:54:27;;;;;;;99.30;43.03;;;;;;;;;;1036485;28;20044;-76
2022/12/02 01:54:58;;;;;;;94.97;44.72;;;;;;;;;;1035202;28;20112;-76
2022/12/02 01:55:29;;;;;;;100.15;47.92;;;;;;;;;;1035653;28;20037;-77
2022/12/02 01:56:00;;;;;;;102.65;46.28;;;;;;;;;;1037592;28;20025;-76
2022/12/02 01:56:31;;;;;;;94.07;47.13;;;;;;;;;;1035269;28;20032;-77
2022/12/02 01:57:03;;;;;;;114.57;53.97;;;;;;;;;;1035548;28;20478;-78
2022/12/02 01:57:34;;;;;;;113.43;54.10;;;;;;;;;;1036465;28;20048;-77
2022/12/02 01:58:07;;;;;;;88.30;40.58;;;;;;;;;;1033259;28;20061;-77
2022/12/02 01:58:38;;;;;;;44.60;21.27;;;;;;;;;;1038183;28;20022;-76
2022/12/02 01:59:11;;;;;;;56.95;22.90;;;;;;;;;;1034078;28;20117;-76
2022/12/02 01:59:42;;;;;;;46.97;22.67;;;;;;;;;;1034923;28;20080;-77
2022/12/02 02:00:13;;;;;;;49.25;21.55;;;;;;;;;;1037307;28;20033;-76
2022/12/02 02:00:44;;;;;;;43.80;22.48;;;;;;;;;;1036404;28;20038;-77
2022/12/02 02:01:41;;;;;;;41.70;18.95;;;;;;;;;;1037049;28;20061;-78
2022/12/02 02:02:24;;;;;;;48.17;21.55;;;;;;;;;;1033708;28;20042;-79
2022/12/02 02:02:55;;;;;;;52.50;22.38;;;;;;;;;;1041157;28;20116;-78
2022/12/02 02:03:26;;;;;;;44.47;19.50;;;;;;;;;;1032352;28;20028;-77
2022/12/02 02:03:57;;;;;;;45.42;20.05;;;;;;;;;;1029674;28;20026;-76
2022/12/02 02:04:27;;;;;;;62.65;20.58;;;;;;;;;;1032770;28;20535;-76
2022/12/02 02:05:17;;;;;;;45.03;19.45;;;;;;;;;;1032248;28;20109;-78
2022/12/02 02:05:49;;;;;;;41.58;18.63;;;;;;;;;;1036312;28;20111;-78
2022/12/02 02:06:20;;;;;;;49.10;20.15;;;;;;;;;;1038454;28;20029;-78
2022/12/02 02:06:51;;;;;;;42.88;19.80;;;;;;;;;;1038225;28;20339;-78
2022/12/02 02:07:22;;;;;;;45.60;20.13;;;;;;;;;;1036874;28;20067;-78
2022/12/02 02:07:53;;;;;;;41.35;17.80;;;;;;;;;;1033661;28;20073;-78
2022/12/02 02:08:24;;;;;;;61.47;22.88;;;;;;;;;;1032298;28;20023;-77
2022/12/02 02:08:56;;;;;;;45.53;21.75;;;;;;;;;;1034582;28;20029;-78
2022/12/02 02:09:26;;;;;;;49.33;22.52;;;;;;;;;;1036169;28;20081;-79
2022/12/02 02:09:58;;;;;;;56.33;26.85;;;;;;;;;;1033962;28;20022;-79
2022/12/02 02:10:28;;;;;;;65.07;26.38;;;;;;;;;;1034874;28;20030;-78
2022/12/02 02:10:59;;;;;;;74.65;30.80;;;;;;;;;;1036215;28;20033;-77
2022/12/02 02:11:30;;;;;;;58.67;29.85;;;;;;;;;;1028386;28;20545;-78
2022/12/02 02:12:01;;;;;;;64.93;28.88;;;;;;;;;;1030256;28;20117;-78
2022/12/02 02:12:31;;;;;;;60.40;30.50;;;;;;;;;;1030152;28;20040;-77
2022/12/02 02:13:03;;;;;;;68.00;31.45;;;;;;;;;;1032578;28;20034;-78
2022/12/02 02:13:34;;;;;;;65.82;29.92;;;;;;;;;;1035190;28;20057;-78
2022/12/02 02:14:06;;;;;;;54.30;27.90;;;;;;;;;;1034673;28;20560;-77
2022/12/02 02:14:36;;;;;;;68.97;29.52;;;;;;;;;;1035965;28;20030;-76
2022/12/02 02:15:08;;;;;;;65.65;28.52;;;;;;;;;;1036668;28;20101;-77
2022/12/02 02:15:43;;;;;;;61.92;28.58;;;;;;;;;;1037507;28;20060;-77
2022/12/02 02:16:14;;;;;;;85.78;31.45;;;;;;;;;;1031538;28;20053;-76
2022/12/02 02:16:44;;;;;;;58.10;27.95;;;;;;;;;;1031776;28;20061;-77
2022/12/02 02:17:15;;;;;;;67.43;28.55;;;;;;;;;;1035795;28;20079;-76
2022/12/02 02:17:46;;;;;;;76.60;30.52;;;;;;;;;;1037158;28;20036;-76
2022/12/02 02:18:16;;;;;;;76.13;29.30;;;;;;;;;;1040374;28;20033;-80
2022/12/02 02:18:47;;;;;;;70.47;31.27;;;;;;;;;;1041177;28;20510;-79
2022/12/02 02:19:18;;;;;;;79.72;29.17;;;;;;;;;;1040301;28;20029;-77
2022/12/02 02:19:48;;;;;;;82.32;31.30;;;;;;;;;;1038177;28;20030;-76
2022/12/02 02:20:20;;;;;;;68.65;29.50;;;;;;;;;;1039646;28;20140;-76
2022/12/02 02:20:53;;;;;;;73.68;28.55;;;;;;;;;;1041932;28;20021;-76
2022/12/02 02:21:35;;;;;;;57.85;28.15;;;;;;;;;;1039874;28;20112;-76
2022/12/02 02:22:08;;;;;;;72.15;29.50;;;;;;;;;;1037112;28;20036;-76
2022/12/02 02:22:52;;;;;;;67.63;28.23;;;;;;;;;;1035043;28;20162;-78
2022/12/02 02:23:24;;;;;;;65.88;31.55;;;;;;;;;;1037029;28;20064;-78
2022/12/02 02:23:55;;;;;;;74.93;30.90;;;;;;;;;;1039017;28;20036;-78
2022/12/02 02:24:25;;;;;;;74.85;32.72;;;;;;;;;;1040524;28;20029;-78
2022/12/02 02:24:56;;;;;;;72.32;30.42;;;;;;;;;;1033041;28;20478;-78
2022/12/02 02:25:27;;;;;;;68.68;31.98;;;;;;;;;;1036758;28;20022;-78
2022/12/02 02:25:59;;;;;;;83.43;33.88;;;;;;;;;;1029826;28;20026;-78
2022/12/02 02:26:29;;;;;;;84.90;34.88;;;;;;;;;;1037379;28;20010;-78
2022/12/02 02:27:00;;;;;;;64.75;32.38;;;;;;;;;;1035429;28;20007;-79
2022/12/02 02:27:31;;;;;;;82.80;34.08;;;;;;;;;;1031900;28;20030;-77
2022/12/02 02:28:03;;;;;;;77.72;34.72;;;;;;;;;;1032809;28;20350;-76
2022/12/02 02:28:34;;;;;;;74.90;33.20;;;;;;;;;;1031743;28;20023;-75
2022/12/02 02:29:06;;;;;;;63.67;30.42;;;;;;;;;;1033789;28;20421;-75
2022/12/02 02:29:37;;;;;;;78.10;30.77;;;;;;;;;;1034659;28;20022;-75
2022/12/02 02:30:07;;;;;;;70.63;31.13;;;;;;;;;;1031620;28;20022;-78
2022/12/02 02:30:38;;;;;;;73.40;32.25;;;;;;;;;;1031825;28;20578;-76
2022/12/02 02:31:09;;;;;;;83.05;35.40;;;;;;;;;;1033912;28;20419;-79
2022/12/02 02:31:39;;;;;;;69.22;30.70;;;;;;;;;;1035785;28;20041;-76
2022/12/02 02:32:10;;;;;;;70.03;31.58;;;;;;;;;;1037752;28;20025;-76
2022/12/02 02:32:41;;;;;;;77.15;33.15;;;;;;;;;;1036093;28;20500;-78
2022/12/02 02:33:13;;;;;;;73.72;34.92;;;;;;;;;;1033311;28;20069;-77
2022/12/02 02:33:45;;;;;;;66.05;29.33;;;;;;;;;;1031257;28;20030;-78
2022/12/02 02:34:15;;;;;;;59.75;27.52;;;;;;;;;;1027898;28;20124;-80
2022/12/02 02:34:46;;;;;;;59.78;28.77;;;;;;;;;;1029680;28;20108;-80
2022/12/02 02:35:18;;;;;;;70.15;30.13;;;;;;;;;;1031675;28;20032;-80
2022/12/02 02:35:58;;;;;;;70.28;25.65;;;;;;;;;;1035571;28;20036;-79
2022/12/02 02:36:29;;;;;;;67.53;32.10;;;;;;;;;;1035416;28;20040;-79
2022/12/02 02:37:00;;;;;;;69.40;31.02;;;;;;;;;;1034619;28;20393;-79
2022/12/02 02:37:31;;;;;;;65.95;31.42;;;;;;;;;;1034901;28;20068;-79
2022/12/02 02:38:02;;;;;;;65.40;30.30;;;;;;;;;;1035507;28;20347;-79
2022/12/02 02:38:33;;;;;;;73.18;30.10;;;;;;;;;;1035431;28;20072;-80
2022/12/02 02:39:04;;;;;;;69.32;27.42;;;;;;;;;;1033682;28;20564;-79
2022/12/02 02:39:35;;;;;;;69.47;30.52;;;;;;;;;;1034531;28;20061;-79
2022/12/02 02:40:09;;;;;;;82.20;31.95;;;;;;;;;;1034588;28;20036;-79
2022/12/02 02:40:40;;;;;;;70.03;31.73;;;;;;;;;;1032478;28;20022;-79
2022/12/02 02:41:11;;;;;;;76.43;34.20;;;;;;;;;;1034418;28;20053;-78
2022/12/02 02:41:42;;;;;;;72.70;34.20;;;;;;;;;;1035336;28;20029;-79
2022/12/02 02:42:13;;;;;;;68.65;35.80;;;;;;;;;;1033840;28;20033;-78
2022/12/02 02:42:46;;;;;;;72.30;34.05;;;;;;;;;;1036210;28;20038;-77
2022/12/02 02:43:18;;;;;;;75.18;34.42;;;;;;;;;;1032466;28;20161;-78
2022/12/02 02:43:49;;;;;;;79.47;35.28;;;;;;;;;;1037561;28;20530;-79
2022/12/02 02:44:19;;;;;;;80.90;37.35;;;;;;;;;;1036370;28;20548;-77
2022/12/02 02:44:50;;;;;;;81.57;35.22;;;;;;;;;;1031967;28;20556;-78
2022/12/02 02:45:21;;;;;;;71.70;34.33;;;;;;;;;;1032281;28;20076;-78
2022/12/02 02:45:53;;;;;;;87.85;37.70;;;;;;;;;;1032806;28;20026;-78
2022/12/02 02:46:24;;;;;;;82.57;37.67;;;;;;;;;;1035586;28;20041;-78
2022/12/02 02:46:55;;;;;;;84.80;36.90;;;;;;;;;;1033049;28;20044;-78
2022/12/02 02:47:25;;;;;;;80.00;36.00;;;;;;;;;;1033078;28;20033;-78
2022/12/02 02:47:56;;;;;;;82.93;34.80;;;;;;;;;;1036818;28;20022;-78
2022/12/02 02:48:27;;;;;;;81.45;37.47;;;;;;;;;;1035773;28;20038;-78
2022/12/02 02:48:59;;;;;;;79.28;38.63;;;;;;;;;;1038406;28;20028;-78
2022/12/02 02:49:31;;;;;;;80.97;35.72;;;;;;;;;;1036678;28;20033;-78
2022/12/02 02:50:01;;;;;;;85.18;39.95;;;;;;;;;;1034451;28;20521;-78
2022/12/02 02:50:34;;;;;;;87.72;34.63;;;;;;;;;;1038293;28;20039;-78
2022/12/02 02:51:08;;;;;;;78.80;35.92;;;;;;;;;;1036774;28;20029;-77
2022/12/02 02:51:39;;;;;;;84.55;36.60;;;;;;;;;;1037828;28;20025;-78
2022/12/02 02:52:10;;;;;;;86.30;36.08;;;;;;;;;;1029133;28;20057;-78
2022/12/02 02:52:41;;;;;;;92.50;38.83;;;;;;;;;;1024390;28;20034;-79
2022/12/02 02:53:13;;;;;;;74.90;36.13;;;;;;;;;;1023628;28;20027;-78
2022/12/02 02:53:44;;;;;;;69.65;31.08;;;;;;;;;;1029248;28;20085;-78
2022/12/02 02:54:15;;;;;;;83.07;36.55;;;;;;;;;;1029771;28;20072;-78
2022/12/02 02:54:46;;;;;;;78.70;34.70;;;;;;;;;;1026957;28;20019;-78
2022/12/02 02:55:19;;;;;;;79.40;33.63;;;;;;;;;;1031864;28;20557;-77
2022/12/02 02:55:50;;;;;;;73.55;32.15;;;;;;;;;;1030335;28;20031;-77
2022/12/02 02:56:22;;;;;;;77.57;32.47;;;;;;;;;;1032126;28;20422;-78
2022/12/02 02:56:53;;;;;;;67.18;29.20;;;;;;;;;;1034701;28;20116;-77
2022/12/02 02:57:23;;;;;;;83.53;33.45;;;;;;;;;;1037608;28;20117;-77
2022/12/02 02:57:54;;;;;;;79.00;35.35;;;;;;;;;;1040131;28;20033;-77
2022/12/02 02:58:25;;;;;;;93.15;36.65;;;;;;;;;;1037763;28;20029;-79
2022/12/02 02:58:56;;;;;;;78.10;37.20;;;;;;;;;;1034490;28;20141;-78
2022/12/02 02:59:28;;;;;;;88.10;37.80;;;;;;;;;;1037565;28;20097;-78
2022/12/02 02:59:58;;;;;;;81.75;33.53;;;;;;;;;;1030943;28;20105;-78
2022/12/02 03:00:29;;;;;;;76.72;34.50;;;;;;;;;;1032046;28;20038;-77
2022/12/02 03:01:07;;;;;;;79.93;34.83;;;;;;;;;;1033637;28;20029;-77
2022/12/02 03:01:37;;;;;;;72.95;33.65;;;;;;;;;;1034013;28;20053;-77
2022/12/02 03:02:09;;;;;;;85.50;37.17;;;;;;;;;;1032844;28;20061;-81
2022/12/02 03:02:41;;;;;;;75.88;33.80;;;;;;;;;;1034890;28;20018;-78
2022/12/02 03:03:13;;;;;;;64.45;25.83;;;;;;;;;;1033830;28;20025;-77
2022/12/02 03:03:45;;;;;;;67.10;31.73;;;;;;;;;;1029749;28;20058;-80
2022/12/02 03:04:17;;;;;;;75.93;33.15;;;;;;;;;;1031182;28;20129;-80
2022/12/02 03:04:48;;;;;;;70.05;31.77;;;;;;;;;;1030729;28;20033;-79
2022/12/02 03:05:20;;;;;;;79.28;34.08;;;;;;;;;;1029560;28;20085;-77
2022/12/02 03:05:53;;;;;;;76.22;34.78;;;;;;;;;;1030708;28;20675;-79
2022/12/02 03:06:25;;;;;;;72.25;32.80;;;;;;;;;;1022895;28;20027;-79
2022/12/02 03:06:55;;;;;;;76.57;32.15;;;;;;;;;;1023879;28;20031;-80
2022/12/02 03:07:26;;;;;;;72.57;31.38;;;;;;;;;;1025806;28;20146;-79
2022/12/02 03:07:58;;;;;;;72.20;34.50;;;;;;;;;;1032650;28;20014;-78
2022/12/02 03:08:30;;;;;;;72.63;32.17;;;;;;;;;;1035995;28;20049;-80
2022/12/02 03:09:02;;;;;;;77.88;34.03;;;;;;;;;;1034349;28;20085;-78
2022/12/02 03:09:33;;;;;;;75.85;35.85;;;;;;;;;;1034440;28;20029;-78
2022/12/02 03:10:04;;;;;;;80.28;37.92;;;;;;;;;;1036565;28;20034;-79
2022/12/02 03:10:35;;;;;;;82.70;34.58;;;;;;;;;;1030797;28;20125;-78
2022/12/02 03:11:06;;;;;;;66.78;30.63;;;;;;;;;;1036271;28;20033;-80
2022/12/02 03:11:37;;;;;;;72.63;31.10;;;;;;;;;;1033781;28;20026;-79
2022/12/02 03:12:08;;;;;;;73.03;31.58;;;;;;;;;;1036916;28;20033;-77
2022/12/02 03:12:39;;;;;;;79.72;30.58;;;;;;;;;;1035785;28;20622;-77
2022/12/02 03:13:10;;;;;;;70.78;29.15;;;;;;;;;;1034781;28;20033;-76
2022/12/02 03:13:42;;;;;;;63.75;29.23;;;;;;;;;;1036044;28;20410;-76
2022/12/02 03:14:15;;;;;;;63.38;27.38;;;;;;;;;;1036102;28;20795;-77
2022/12/02 03:14:45;;;;;;;73.82;29.50;;;;;;;;;;1035341;28;20022;-77
2022/12/02 03:15:16;;;;;;;72.22;31.10;;;;;;;;;;1034870;28;20017;-78
2022/12/02 03:15:47;;;;;;;83.85;32.92;;;;;;;;;;1034569;28;20040;-79
2022/12/02 03:16:19;;;;;;;70.75;32.20;;;;;;;;;;1033839;28;20030;-77